Millenium Air

Millenium Air Since 1998



 METAR AND TAF INFORMATION
METAR FOR ESSL
ADDS - METARS form results

(0109 UTC 26 February 2021)
Data provider http://aviationweather.gov/metar/data/
 
METAR text: ESSL 260050Z AUTO 27013KT 240V320 9999 NCD 06/02 Q1012
Conditions at: ESSL (LINKOPING/SAAB , SE) observed 0050 UTC 26 February 2021
Temperature: 6.0°C (43°F)
Dewpoint: 2.0°C (36°F) [RH = 75%]
Pressure (altimeter): 29.88 inches Hg (1012.0 mb)
Winds: from the W (270 degrees) at 15 MPH (13 knots; 6.7 m/s)
Visibility: 6 or more miles (10+ km)
Ceiling: at least 12,000 feet AGL
Clouds: sky clear below 12,000 feet AGL
Weather: no significant weather observed at this time

METAR text: ESSL 260020Z AUTO 25013KT 230V290 9999 NCD 06/01 Q1012
Conditions at: ESSL (LINKOPING/SAAB , SE) observed 0020 UTC 26 February 2021
Temperature: 6.0°C (43°F)
Dewpoint: 1.0°C (34°F) [RH = 70%]
Pressure (altimeter): 29.88 inches Hg (1012.0 mb)
Winds: from the WSW (250 degrees) at 15 MPH (13 knots; 6.7 m/s)
Visibility: 6 or more miles (10+ km)
Ceiling: at least 12,000 feet AGL
Clouds: sky clear below 12,000 feet AGL
Weather: no significant weather observed at this time

Forecast for: ESSL (LINKOPING/SAAB , SE)
Text: TAF ESSL 251430Z 2515/2517 24015G25KT 9999 BKN030
Forecast period: 1500 to 1700 UTC 25 February 2021
Forecast type: FROM: standard forecast or significant change
Winds: from the WSW (240 degrees) at 17 MPH (15 knots; 7.7 m/s)
gusting to 29 MPH (25 knots; 12.9 m/s)
Visibility: 6 or more miles (10+ km)
Ceiling: 3000 feet AGL
Clouds: broken clouds at 3000 feet AGL
Weather: no significant weather forecast for this period

 AIRPORT MAP

 RUNWAY INFORMATION
Runway 11 Runway length 6989 ft Runway width 131 ft
Runway elevation 142 ft Runway displaced threshold 0 ft Runway heading 112
Runway 29 Runway length 6989 ft Runway width 131 ft
Runway elevation 172 ft Runway displaced threshold 0 ft Runway heading 292

 AIRPORT FREQUENCIES
Type TWR Name TWR Frequency 118.8 MHZ

 AIRPORT NEAR NAVIGATION AIDS